Time;durP1;ratioP1;P1;durP2;ratioP2;P2;SDS_P1;SDS_P2;PMS_P1;PMS_P2;Temp;Humidity;BMP_temperature;BMP_pressure;BME280_temperature;BME280_humidity;BME280_pressure;Samples;Min_cycle;Max_cycle;Signal;HPM_P1;HPM_P2
2022/06/12 00:00:37;;;;;;;3.33;1.55;;;24.70;44.40;;;28.58;29.00;101906.84;5114538;28;20048;-12
2022/06/12 00:03:06;;;;;;;3.50;1.27;;;24.70;44.40;;;28.58;28.90;101907.69;5114362;28;20437;-12
2022/06/12 00:05:36;;;;;;;2.47;1.40;;;24.70;44.40;;;28.61;29.18;101912.00;5114041;28;20109;-12
2022/06/12 00:08:03;;;;;;;2.00;1.15;;;24.70;44.40;;;28.61;29.26;101912.84;5114465;28;20544;-12
2022/06/12 00:10:29;;;;;;;2.10;1.30;;;24.70;44.40;;;28.58;29.24;101907.69;5114045;28;20188;-12
2022/06/12 00:12:56;;;;;;;2.63;1.23;;;24.70;44.40;;;28.59;29.29;101911.28;5113954;28;20454;-12
2022/06/12 00:15:25;;;;;;;2.92;1.42;;;24.70;44.30;;;28.58;29.03;101906.84;5113963;28;20039;-12
2022/06/12 00:17:52;;;;;;;1.42;1.20;;;24.70;44.30;;;28.56;28.99;101906.13;5095580;28;20403;-12
2022/06/12 00:20:19;;;;;;;1.90;1.20;;;24.70;44.30;;;28.57;29.01;101899.78;5114146;28;20058;-12
2022/06/12 00:22:46;;;;;;;3.30;1.38;;;24.70;44.40;;;28.58;29.15;101906.84;5114078;28;20138;-12
2022/06/12 00:25:14;;;;;;;1.27;1.17;;;24.70;44.30;;;28.58;28.89;101910.41;5113636;28;20043;-12
2022/06/12 00:27:41;;;;;;;1.73;1.25;;;24.70;44.90;;;28.56;29.09;101903.44;5113661;28;20047;-12
2022/06/12 00:30:11;;;;;;;2.17;1.40;;;24.70;44.30;;;28.60;29.31;101912.97;5110407;28;20052;-12
2022/06/12 00:32:38;;;;;;;2.35;1.40;;;24.70;44.30;;;28.57;29.27;101915.94;5113658;28;20039;-12
2022/06/12 00:35:08;;;;;;;2.97;1.33;;;24.70;44.40;;;28.56;29.22;101908.81;5113552;28;20078;-12
2022/06/12 00:37:35;;;;;;;1.50;1.10;;;24.70;44.30;;;28.57;29.13;101914.06;5113640;28;20052;-12
2022/06/12 00:40:05;;;;;;;1.20;1.10;;;24.70;44.30;;;28.59;29.13;101911.28;5113136;28;20043;-12
2022/06/12 00:42:37;;;;;;;1.98;1.58;;;24.70;44.30;;;28.59;29.27;101917.50;5113405;28;20415;-12
2022/06/12 00:45:32;;;;;;;2.25;1.10;;;24.70;44.30;;;28.59;28.87;101909.44;5113822;28;20058;-12
2022/06/12 00:48:05;;;;;;;2.85;1.40;;;24.70;44.30;;;28.56;28.96;101904.28;5113604;28;20452;-12
2022/06/12 00:50:32;;;;;;;2.67;1.20;;;24.70;44.30;;;28.54;29.10;101898.13;5095891;28;20047;-12
2022/06/12 00:53:00;;;;;;;2.50;1.48;;;24.70;44.20;;;28.59;29.39;101912.13;5113304;28;20052;-12
2022/06/12 00:55:47;;;;;;;2.00;1.10;;;24.70;44.30;;;28.57;29.25;101910.53;5094943;28;20460;-12
2022/06/12 00:58:19;;;;;;;1.77;1.20;;;24.70;44.30;;;28.54;29.01;101906.22;5113225;28;20052;-12
2022/06/12 01:00:47;;;;;;;2.00;1.48;;;24.70;44.30;;;28.57;29.10;101903.31;5095163;28;20040;-12
2022/06/12 01:03:14;;;;;;;1.13;1.02;;;24.70;44.40;;;28.55;28.87;101905.25;5113294;28;20048;-12
2022/06/12 01:08:28;;;;;;;2.05;1.50;;;24.70;44.40;;;28.55;28.93;101902.56;5113241;28;20047;-12
2022/06/12 01:10:58;;;;;;;2.95;1.20;;;24.70;44.30;;;28.56;29.01;101901.59;5113149;28;20055;-12
2022/06/12 01:13:29;;;;;;;2.97;1.50;;;24.70;44.30;;;28.56;28.97;101898.06;5094865;28;20065;-12
2022/06/12 01:16:02;;;;;;;2.05;1.25;;;24.70;44.30;;;28.55;29.31;101902.56;5111716;28;20083;-12
2022/06/12 01:18:35;;;;;;;2.75;1.10;;;24.70;44.30;;;28.52;28.83;101892.03;5094582;28;20071;-12
2022/06/12 01:21:44;;;;;;;2.35;1.42;;;24.70;44.40;;;28.56;29.17;101893.50;5113574;28;20072;-12
2022/06/12 01:25:04;;;;;;;1.00;0.90;;;24.70;44.30;;;28.58;28.98;101893.41;5095228;28;21450;-12
2022/06/12 01:28:36;;;;;;;1.98;1.23;;;24.70;44.30;;;28.57;29.00;101899.78;5113206;28;20063;-12
2022/06/12 01:31:12;;;;;;;1.27;1.17;;;24.70;44.30;;;28.53;29.18;101901.78;5109062;28;20036;-12
2022/06/12 01:33:54;;;;;;;2.65;1.38;;;24.70;44.30;;;28.51;29.21;101893.00;5113091;28;20365;-12
2022/06/12 01:36:49;;;;;;;2.05;1.27;;;24.60;44.30;;;28.52;29.27;101897.41;5113134;28;20048;-12
2022/06/12 01:39:31;;;;;;;2.42;1.20;;;24.60;44.30;;;28.50;29.32;101885.91;5094115;28;20047;-12
2022/06/12 01:42:20;;;;;;;2.25;1.30;;;24.70;44.30;;;28.49;29.27;101886.88;5112886;28;20063;-12
2022/06/12 01:45:08;;;;;;;1.92;1.10;;;24.60;44.30;;;28.52;29.14;101888.47;5111367;28;20055;-12
2022/06/12 01:48:01;;;;;;;1.45;1.10;;;24.60;44.30;;;28.49;29.17;101877.97;5112449;28;20039;-12
2022/06/12 01:51:03;;;;;;;2.25;1.30;;;24.60;44.30;;;28.51;28.94;101884.06;5111626;28;20052;-12
2022/06/12 01:53:44;;;;;;;2.25;1.30;;;24.60;44.30;;;28.52;29.06;101881.25;5114181;28;20060;-12
2022/06/12 01:56:16;;;;;;;2.47;1.40;;;24.70;44.30;;;28.52;28.95;101872.31;5116227;28;20410;-12
2022/06/12 01:58:59;;;;;;;3.15;1.50;;;24.60;44.20;;;28.45;28.97;101867.44;5096623;28;20040;-12
2022/06/12 02:01:45;;;;;;;1.40;1.27;;;24.60;44.30;;;28.48;29.23;101873.56;5097759;28;20047;-12
2022/06/12 02:04:49;;;;;;;2.47;1.45;;;24.60;44.20;;;28.49;29.03;101876.13;5098048;28;20043;-12
2022/06/12 02:07:50;;;;;;;2.67;1.40;;;24.60;44.30;;;28.49;29.20;101869.88;5101143;28;20503;-12
2022/06/12 02:10:30;;;;;;;1.85;1.50;;;24.60;44.30;;;28.45;28.98;101866.56;5115599;28;20067;-12
2022/06/12 02:13:17;;;;;;;1.90;1.30;;;24.60;44.30;;;28.49;29.17;101873.44;5097965;28;20139;-12
2022/06/12 02:16:00;;;;;;;2.78;1.38;;;24.60;44.30;;;28.42;29.11;101864.97;5115838;28;20131;-12
2022/06/12 02:18:43;;;;;;;2.63;1.38;;;24.60;44.30;;;28.45;28.84;101871.94;5115846;28;20082;-12
2022/06/12 02:21:31;;;;;;;1.85;1.40;;;24.60;44.30;;;28.45;28.91;101870.13;5116436;28;20105;-12
2022/06/12 02:24:01;;;;;;;2.22;1.20;;;24.60;44.30;;;28.48;28.92;101869.00;5114442;28;20108;-12
2022/06/12 02:26:36;;;;;;;2.03;1.35;;;24.60;44.30;;;28.42;28.85;101869.53;5096341;28;20089;-12
2022/06/12 02:29:10;;;;;;;3.13;1.70;;;24.60;44.30;;;28.48;28.98;101877.09;5114523;28;20122;-12
2022/06/12 02:31:41;;;;;;;2.08;1.08;;;24.60;44.30;;;28.48;29.16;101868.16;5114358;28;20484;-12
2022/06/12 02:34:15;;;;;;;;;;;24.50;44.30;;;28.56;28.71;101863.91;5116642;28;20108;-12
2022/06/12 02:36:50;;;;;;;2.28;1.20;;;24.60;44.30;;;28.52;29.21;101869.63;5097939;28;19915;-12
2022/06/12 02:39:30;;;;;;;1.65;1.38;;;24.60;44.30;;;28.45;28.81;101871.94;5095190;28;20134;-12
2022/06/12 02:42:04;;;;;;;2.92;1.60;;;24.60;44.30;;;28.42;29.01;101864.13;5080502;28;20458;-12
2022/06/12 02:45:00;;;;;;;3.08;1.30;;;24.50;44.30;;;28.45;29.11;101874.63;5115734;28;20427;-12
2022/06/12 02:47:31;;;;;;;1.80;1.30;;;24.50;44.30;;;28.40;28.99;101860.69;5097106;28;20052;-12
2022/06/12 02:49:58;;;;;;;1.95;1.30;;;24.50;44.30;;;28.45;29.13;101867.44;5115559;28;20113;-12
2022/06/12 02:53:02;;;;;;;2.22;1.58;;;24.50;44.20;;;28.43;29.04;101868.53;5114028;28;20131;-12
2022/06/12 02:55:44;;;;;;;1.30;1.20;;;24.50;44.30;;;28.44;29.20;101864.88;5114060;28;20469;-12
2022/06/12 02:58:31;;;;;;;3.15;1.65;;;24.50;44.20;;;28.43;28.98;101863.13;5115194;28;20043;-12
2022/06/12 03:01:05;;;;;;;2.70;1.25;;;24.50;44.30;;;28.37;29.10;101845.66;5115478;28;20048;-12
2022/06/12 03:03:55;;;;;;;1.90;1.30;;;24.50;44.30;;;28.42;29.18;101848.84;5095678;28;20407;-12
2022/06/12 03:06:26;;;;;;;2.67;1.52;;;24.50;44.30;;;28.37;28.96;101850.19;5096592;28;20449;-12
2022/06/12 03:08:56;;;;;;;2.70;1.55;;;24.50;44.30;;;28.39;28.96;101848.22;5114970;28;20040;-12
2022/06/12 03:11:41;;;;;;;3.13;1.52;;;24.50;44.20;;;28.37;29.06;101847.50;5115230;28;20061;-12
2022/06/12 03:14:11;;;;;;;2.42;1.30;;;24.50;44.30;;;28.39;28.99;101850.94;5114969;28;20100;-12
2022/06/12 03:16:41;;;;;;;2.47;1.55;;;24.50;44.20;;;28.42;29.05;101851.53;5112551;28;20104;-12
2022/06/12 03:19:33;;;;;;;2.88;1.23;;;24.50;44.20;;;28.41;28.93;101849.81;5115158;28;20488;-12
2022/06/12 03:22:40;;;;;;;1.88;1.13;;;24.50;44.20;;;28.46;29.19;101853.00;5113818;28;20463;-12
2022/06/12 03:25:25;;;;;;;1.42;1.10;;;24.60;44.20;;;28.43;29.18;101850.56;5114573;28;20043;-12
2022/06/12 03:28:08;;;;;;;1.60;1.50;;;24.60;44.20;;;28.40;29.24;101848.13;5096312;28;20059;-12
2022/06/12 03:30:44;;;;;;;2.72;1.45;;;24.60;44.20;;;28.37;29.10;101842.97;5093290;28;20117;-12
2022/06/12 03:33:42;;;;;;;3.38;1.27;;;24.60;44.20;;;28.45;28.94;101863.88;5095519;28;20054;-12
2022/06/12 03:36:35;;;;;;;2.67;1.25;;;24.60;44.20;;;28.42;28.92;101856.91;5096388;28;20139;-12
2022/06/12 03:39:20;;;;;;;2.13;1.13;;;24.60;44.20;;;28.41;29.15;101857.88;5113228;28;20055;-12
2022/06/12 03:42:00;;;;;;;2.03;1.48;;;24.60;44.20;;;28.42;29.11;101856.91;5096860;28;20495;-12
2022/06/12 03:44:46;;;;;;;2.50;1.70;;;24.60;44.20;;;28.45;29.10;101854.00;5113222;28;20498;-12
2022/06/12 03:47:30;;;;;;;2.22;1.40;;;24.60;44.20;;;28.42;29.08;101856.91;5114649;28;20040;-12
2022/06/12 03:50:24;;;;;;;2.30;1.27;;;24.60;44.10;;;28.46;29.14;101858.38;5112110;28;20048;-12
2022/06/12 03:53:09;;;;;;;2.88;1.40;;;24.60;44.10;;;28.42;29.14;101853.38;5114337;28;20126;-12
2022/06/12 03:59:10;;;;;;;2.25;1.20;;;24.60;44.20;;;28.47;29.02;101867.31;5112028;28;20051;-12
2022/06/12 04:01:37;;;;;;;2.20;1.38;;;24.60;44.10;;;28.46;28.69;101860.22;5092281;28;20052;-12
2022/06/12 04:04:04;;;;;;;2.22;1.48;;;24.70;44.10;;;28.51;28.98;101862.56;5114142;28;20051;-12
2022/06/12 04:06:31;;;;;;;1.75;1.15;;;24.70;44.00;;;28.48;29.08;101852.88;5114173;28;20039;-12
2022/06/12 04:09:13;;;;;;;3.03;1.52;;;24.70;44.00;;;28.48;28.85;101846.66;5095827;28;20049;-12
2022/06/12 04:11:41;;;;;;;1.80;1.20;;;24.70;43.90;;;28.55;28.86;101861.31;5094226;28;20075;-12
2022/06/12 04:14:13;;;;;;;2.30;1.40;;;24.80;43.90;;;28.56;28.88;101852.31;5113834;28;20044;-12
2022/06/12 04:16:46;;;;;;;2.08;1.33;;;24.90;43.80;;;28.60;28.94;101851.97;5112455;28;20039;-12
2022/06/12 04:19:23;;;;;;;1.67;1.30;;;24.90;43.70;;;28.64;28.76;101857.94;5113775;28;20055;-12
2022/06/12 04:22:05;;;;;;;2.55;1.15;;;24.90;43.60;;;28.71;28.96;101867.22;5112597;28;20471;-12
2022/06/12 04:24:50;;;;;;;1.77;1.25;;;25.00;43.60;;;28.73;28.79;101867.13;5114170;28;20047;-12
2022/06/12 04:27:36;;;;;;;1.95;1.15;;;25.10;43.50;;;28.76;28.83;101859.66;5112379;28;20043;-12
2022/06/12 04:30:28;;;;;;;1.67;1.40;;;25.20;43.40;;;28.85;28.83;101866.13;5094413;28;20488;-12
2022/06/12 04:33:22;;;;;;;1.40;1.30;;;25.20;43.30;;;28.86;28.70;101857.06;5114275;28;20088;-12
2022/06/12 04:35:59;;;;;;;2.35;1.42;;;25.30;43.20;;;28.97;28.69;101873.22;5095504;28;20138;-12
2022/06/12 04:38:27;;;;;;;2.75;1.40;;;25.40;43.10;;;29.03;28.50;101866.47;5113482;28;20043;-13
2022/06/12 04:40:54;;;;;;;2.35;1.48;;;25.40;43.00;;;29.04;28.68;101853.91;5113894;28;20471;-12
2022/06/12 04:43:21;;;;;;;1.73;1.08;;;25.50;42.90;;;29.13;28.41;101855.81;5113506;28;20407;-12
2022/06/12 04:45:47;;;;;;;2.28;1.38;;;25.60;42.90;;;29.10;28.35;101846.19;5113529;28;20043;-12
2022/06/12 04:48:19;;;;;;;2.22;1.50;;;25.60;42.70;;;29.19;28.32;101852.66;5110132;28;20051;-12
2022/06/12 04:50:46;;;;;;;2.13;1.30;;;25.60;42.70;;;29.24;28.40;101850.44;5114074;28;20044;-12
2022/06/12 04:53:12;;;;;;;2.28;1.27;;;25.70;42.60;;;29.23;28.52;101845.19;5113718;28;20130;-12
2022/06/12 04:55:38;;;;;;;1.67;1.27;;;25.80;42.60;;;29.34;28.02;101850.56;5113413;28;20044;-12
2022/06/12 04:58:06;;;;;;;3.40;1.40;;;25.90;42.50;;;29.38;28.10;101846.59;5113365;28;20040;-12
2022/06/12 05:00:35;;;;;;;1.30;1.17;;;25.80;42.40;;;29.40;28.09;101841.09;5113323;28;20048;-12
2022/06/12 05:03:03;;;;;;;2.47;1.30;;;25.90;42.40;;;29.42;28.30;101839.13;5113600;28;20051;-12
2022/06/12 05:05:29;;;;;;;3.25;1.30;;;25.90;42.30;;;29.46;28.15;101837.91;5094697;28;20093;-12
2022/06/12 05:07:57;;;;;;;1.77;1.23;;;25.90;42.30;;;29.47;27.99;101832.38;5113407;28;20445;-12
2022/06/12 05:10:22;;;;;;;2.22;1.42;;;25.90;42.30;;;29.55;28.12;101837.13;5113156;28;20039;-12
2022/06/12 05:12:49;;;;;;;1.88;1.17;;;26.00;42.30;;;29.53;28.10;101822.94;5113217;28;20088;-12
2022/06/12 05:15:15;;;;;;;2.08;1.25;;;26.00;42.20;;;29.63;27.87;101834.63;5112974;28;20054;-12
2022/06/12 05:17:45;;;;;;;1.95;1.27;;;26.00;42.20;;;29.66;27.86;101828.16;5094379;28;20396;-12
2022/06/12 05:20:20;;;;;;;1.70;1.27;;;26.10;42.20;;;29.65;27.95;101821.88;5112966;28;20188;-12
2022/06/12 05:22:47;;;;;;;2.58;1.73;;;26.10;42.10;;;29.71;27.69;101824.06;5094987;28;20051;-12
2022/06/12 05:25:15;;;;;;;1.55;1.27;;;26.10;42.00;;;29.77;27.86;101825.44;5112634;28;20052;-12
2022/06/12 05:27:42;;;;;;;1.75;1.40;;;26.10;42.00;;;29.82;27.72;101833.09;5114911;28;20054;-12
2022/06/12 05:30:16;;;;;;;2.03;1.20;;;26.20;42.00;;;29.83;27.62;101834.84;5116587;28;20047;-12
2022/06/12 05:32:43;;;;;;;1.75;1.38;;;26.20;41.90;;;29.83;27.70;101843.75;5116919;28;20050;-12
2022/06/12 05:35:10;;;;;;;2.28;1.42;;;26.30;42.00;;;29.86;27.58;101840.81;5116750;28;20620;-12
2022/06/12 05:37:36;;;;;;;1.20;1.10;;;26.30;41.90;;;29.89;27.57;101835.16;5116305;28;20395;-12
2022/06/12 05:40:06;;;;;;;3.70;1.48;;;26.30;41.90;;;29.92;27.49;101825.94;5116670;28;20171;-12
2022/06/12 05:42:31;;;;;;;2.33;1.17;;;26.40;41.80;;;29.97;27.55;101830.94;5116326;28;20044;-12
2022/06/12 05:44:57;;;;;;;1.73;1.10;;;26.40;41.80;;;30.01;27.58;101830.56;5116137;28;20441;-12
2022/06/12 05:47:23;;;;;;;2.45;1.30;;;26.40;41.70;;;30.03;27.27;101816.94;5096337;28;20044;-12
2022/06/12 05:49:49;;;;;;;2.55;1.38;;;26.50;41.70;;;30.06;27.42;101820.22;5116126;28;20412;-12
2022/06/12 05:52:15;;;;;;;2.20;1.50;;;26.50;41.70;;;30.07;27.38;101816.56;5116569;28;20112;-12
2022/06/12 05:54:42;;;;;;;1.75;1.13;;;26.50;41.70;;;30.15;27.41;101829.34;5116189;28;20059;-12
2022/06/12 05:57:08;;;;;;;2.40;1.70;;;26.50;41.70;;;30.17;27.45;101826.53;5116150;28;20056;-12
2022/06/12 05:59:34;;;;;;;1.70;1.20;;;26.50;41.60;;;30.16;27.19;101814.06;5116084;28;20044;-12
2022/06/12 06:02:00;;;;;;;2.13;1.35;;;26.60;41.70;;;30.19;27.32;101816.47;5116136;28;20051;-12
2022/06/12 06:04:25;;;;;;;1.45;1.20;;;26.60;41.60;;;30.22;27.26;101829.69;5116141;28;20097;-12
2022/06/12 06:06:57;;;;;;;2.40;1.25;;;26.60;41.60;;;30.22;27.32;101819.78;5116003;28;20078;-12
2022/06/12 06:09:25;;;;;;;2.20;1.52;;;26.60;41.60;;;30.32;27.08;101827.88;5116257;28;20046;-12
2022/06/12 06:11:51;;;;;;;1.63;1.17;;;26.60;41.60;;;30.34;27.04;101830.47;5116163;28;20072;-12
2022/06/12 06:14:17;;;;;;;3.65;1.60;;;26.70;41.60;;;30.35;27.14;101829.47;5116531;28;20089;-12
2022/06/12 06:16:44;;;;;;;1.63;1.20;;;26.70;41.50;;;30.32;27.09;101825.19;5115751;28;20036;-12
2022/06/12 06:19:12;;;;;;;2.55;1.52;;;26.70;41.50;;;30.41;26.85;101823.59;5115888;28;20577;-12
2022/06/12 06:21:39;;;;;;;2.53;1.27;;;26.70;41.50;;;30.44;27.04;101817.94;5115692;28;20507;-12
2022/06/12 06:24:06;;;;;;;2.40;1.50;;;26.80;41.50;;;30.46;26.93;101824.03;5115820;28;20101;-12
2022/06/12 06:26:31;;;;;;;3.28;1.67;;;26.80;42.00;;;30.47;26.99;101823.91;5115971;28;20044;-12
2022/06/12 06:28:57;;;;;;;1.80;1.20;;;26.80;41.40;;;30.53;26.89;101824.34;5115765;28;20046;-12
2022/06/12 06:31:24;;;;;;;2.65;1.42;;;26.80;41.40;;;30.51;26.96;101824.47;5115952;28;20059;-12
2022/06/12 06:33:50;;;;;;;1.50;1.20;;;26.80;41.30;;;30.53;26.93;101818.94;5115589;28;20048;-12
2022/06/12 06:36:16;;;;;;;1.33;1.10;;;26.90;41.30;;;30.54;26.65;101818.81;5115561;28;20410;-12
2022/06/12 06:38:45;;;;;;;1.20;1.10;;;26.90;41.30;;;30.61;26.93;101822.69;5115253;28;20082;-12
2022/06/12 06:41:12;;;;;;;1.80;1.20;;;26.90;41.30;;;30.61;26.79;101811.88;5115655;28;20086;-12
2022/06/12 06:46:13;;;;;;;1.92;1.30;;;27.00;41.80;;;30.67;26.81;101824.84;5115494;28;20044;-12
2022/06/12 06:46:27;;;;;;;2.85;1.25;;;27.00;41.20;;;30.69;26.64;101826.53;5115104;28;20082;-13
2022/06/12 06:48:53;;;;;;;1.33;1.02;;;27.00;41.10;;;30.72;26.64;101820.88;5115281;28;20480;-12
2022/06/12 06:51:19;;;;;;;1.52;1.00;;;27.10;41.10;;;30.72;26.59;101815.47;5115467;28;20039;-12
2022/06/12 06:53:44;;;;;;;2.00;1.23;;;27.10;41.10;;;30.76;26.77;101828.56;5115602;28;20118;-12
2022/06/12 06:56:11;;;;;;;2.60;1.30;;;27.10;41.00;;;30.77;26.59;101819.47;5115250;28;20048;-12
2022/06/12 06:58:37;;;;;;;1.20;1.10;;;27.10;41.00;;;30.78;26.66;101809.53;5097174;28;20048;-12
2022/06/12 07:01:04;;;;;;;1.88;1.10;;;27.10;40.90;;;30.83;26.51;101816.22;5097409;28;20507;-12
2022/06/12 07:03:30;;;;;;;1.95;1.45;;;27.10;40.90;;;30.86;26.65;101809.69;5097401;28;20040;-12
2022/06/12 07:05:57;;;;;;;1.80;1.45;;;27.20;40.90;;;30.85;26.39;101808.81;5115062;28;20082;-12
2022/06/12 07:08:26;;;;;;;1.85;1.40;;;27.20;40.90;;;30.89;26.45;101812.13;5114913;28;20047;-12
2022/06/12 07:10:54;;;;;;;2.00;1.50;;;27.20;40.90;;;30.88;26.53;101804.16;5115030;28;20541;-12
2022/06/12 07:13:20;;;;;;;1.30;1.13;;;27.20;40.80;;;30.87;26.59;101805.13;5114923;28;20044;-12
2022/06/12 07:15:47;;;;;;;2.15;1.30;;;27.20;40.80;;;30.90;26.27;101803.00;5115125;28;20433;-12
2022/06/12 07:18:14;;;;;;;1.70;1.30;;;27.30;40.80;;;30.96;26.42;101812.47;5113900;28;20100;-12
2022/06/12 07:20:52;;;;;;;1.13;0.93;;;27.30;40.80;;;31.00;26.54;101816.56;5114779;28;20058;-12
2022/06/12 07:23:20;;;;;;;2.05;1.30;;;27.30;40.70;;;31.05;26.17;101811.59;5115201;28;20488;-12
2022/06/12 07:25:55;;;;;;;2.72;1.30;;;27.40;40.80;;;31.05;26.41;101808.06;5114718;28;20044;-12
2022/06/12 07:28:22;;;;;;;1.65;1.20;;;27.30;40.70;;;31.03;26.35;101795.53;5115350;28;20047;-12
2022/06/12 07:30:50;;;;;;;4.55;1.45;;;27.30;40.70;;;31.08;26.24;101803.22;5113205;28;20039;-12
2022/06/12 07:33:17;;;;;;;1.92;1.30;;;27.40;40.70;;;31.10;26.34;101809.34;5115289;28;20437;-12
2022/06/12 07:35:44;;;;;;;1.58;1.20;;;27.40;40.70;;;31.08;26.22;101805.09;5114622;28;20075;-12
2022/06/12 07:38:12;;;;;;;2.88;1.30;;;27.40;40.80;;;31.09;26.18;101812.16;5096832;28;20043;-12
2022/06/12 07:40:44;;;;;;;1.83;1.38;;;27.40;40.70;;;31.14;26.29;101810.78;5114588;28;20131;-12
2022/06/12 07:43:11;;;;;;;2.10;1.25;;;27.40;40.70;;;31.13;26.15;101800.97;5114481;28;20066;-12
2022/06/12 07:45:39;;;;;;;1.88;1.30;;;27.40;40.70;;;31.16;26.13;101814.19;5114787;28;20403;-12
2022/06/12 07:48:06;;;;;;;1.73;1.25;;;27.40;40.70;;;31.17;26.28;101804.22;5113812;28;20073;-13
2022/06/12 07:50:32;;;;;;;2.80;1.40;;;27.40;40.70;;;31.13;26.24;101789.31;5113761;28;20052;-12
2022/06/12 07:52:59;;;;;;;2.97;1.35;;;27.40;40.70;;;31.15;26.06;101792.72;5114603;28;20101;-12
2022/06/12 07:55:26;;;;;;;2.53;1.45;;;27.40;40.70;;;31.16;26.08;101797.13;5114370;28;20389;-12
2022/06/12 07:57:53;;;;;;;1.73;1.20;;;27.40;40.60;;;31.15;26.02;101796.25;5114286;28;20069;-12
2022/06/12 08:00:20;;;;;;;3.45;1.55;;;27.40;40.70;;;31.20;26.01;101802.09;5114267;28;20063;-12
2022/06/12 08:02:46;;;;;;;2.10;1.20;;;27.40;40.70;;;31.16;26.13;101792.56;5113133;28;20039;-12
2022/06/12 08:05:19;;;;;;;2.13;1.50;;;27.40;40.70;;;31.14;25.92;101805.38;5110922;28;20476;-12
2022/06/12 08:07:45;;;;;;;1.10;0.80;;;27.40;40.70;;;31.18;25.85;101801.38;5114139;28;20043;-12
2022/06/12 08:10:12;;;;;;;1.23;1.10;;;27.40;40.80;;;31.19;26.08;101807.63;5113748;28;20055;-12
2022/06/12 08:12:44;;;;;;;1.42;1.00;;;27.40;40.80;;;31.13;25.99;101798.25;5114043;28;20917;-12
2022/06/12 08:15:16;;;;;;;1.55;1.20;;;27.40;40.70;;;31.20;26.12;101809.34;5114250;28;20085;-12
2022/06/12 08:17:43;;;;;;;1.92;1.30;;;27.40;40.70;;;31.19;26.01;101811.22;5114284;28;20051;-12
2022/06/12 08:20:25;;;;;;;2.35;1.48;;;27.40;40.80;;;31.17;26.10;101807.81;5113743;28;20055;-12
2022/06/12 08:22:54;;;;;;;1.80;1.30;;;27.30;40.70;;;31.15;26.11;101815.16;5113934;28;20399;-12
2022/06/12 08:25:21;;;;;;;3.17;1.10;;;27.30;40.80;;;31.15;25.91;101822.44;5109803;28;20498;-12
2022/06/12 08:27:48;;;;;;;2.22;1.42;;;27.30;40.80;;;31.13;25.90;101813.63;5114229;28;20476;-12
2022/06/12 08:30:14;;;;;;;1.38;1.20;;;27.20;40.90;;;31.09;26.00;101806.78;5113779;28;20468;-12
2022/06/12 08:32:43;;;;;;;2.22;1.27;;;27.20;40.90;;;31.09;26.09;101804.94;5113811;28;20134;-12
2022/06/12 08:35:19;;;;;;;1.98;1.10;;;27.20;41.10;;;31.05;26.23;101800.81;5093775;28;20476;-12
2022/06/12 08:37:46;;;;;;;2.10;1.40;;;27.10;41.00;;;31.04;26.31;101791.00;5113447;28;20043;-12
2022/06/12 08:40:35;;;;;;;2.03;1.38;;;27.10;41.10;;;30.95;26.40;101787.28;5113291;28;20050;-12
2022/06/12 08:43:15;;;;;;;1.45;1.02;;;27.00;41.20;;;30.96;26.35;101783.59;5094179;28;20044;-12
2022/06/12 08:45:48;;;;;;;1.67;1.20;;;27.00;41.30;;;30.88;26.42;101782.56;5095250;28;20051;-12
2022/06/12 08:48:29;;;;;;;1.17;1.08;;;26.90;41.50;;;30.89;26.47;101782.41;5113551;28;20048;-12
2022/06/12 08:51:03;;;;;;;1.85;1.48;;;26.90;41.30;;;30.84;26.30;101760.38;5112534;28;20538;-12
2022/06/12 08:53:56;;;;;;;1.30;1.20;;;26.90;41.40;;;30.85;26.25;101786.38;5095510;28;20056;-12
2022/06/12 08:56:47;;;;;;;1.58;1.20;;;26.80;41.40;;;30.77;26.45;101770.88;5113283;28;20078;-12
2022/06/12 08:59:18;;;;;;;;;;;26.80;41.40;;;30.95;26.45;101781.03;5095510;28;20043;-12
2022/06/12 09:01:43;;;;;;;2.40;1.42;;;26.90;41.50;;;30.82;26.39;101768.63;5095128;28;20260;-12
2022/06/12 09:04:17;;;;;;;2.30;1.40;;;26.80;41.50;;;30.73;26.42;101764.03;5094363;28;20041;-12
2022/06/12 09:06:57;;;;;;;2.35;1.20;;;26.70;41.50;;;30.70;26.70;101761.59;5095300;28;20043;-12
2022/06/12 09:09:26;;;;;;;2.35;1.20;;;26.70;41.60;;;30.73;26.58;101774.84;5111392;28;20412;-12
2022/06/12 09:12:04;;;;;;;2.30;1.30;;;26.70;41.60;;;30.64;26.55;101754.94;5095219;28;20047;-12
2022/06/12 09:15:00;;;;;;;2.33;1.33;;;26.70;42.20;;;30.64;26.75;101760.31;5113418;28;20043;-12
2022/06/12 09:17:47;;;;;;;1.45;0.90;;;26.70;41.70;;;30.63;26.52;101765.84;5112927;28;20110;-12
2022/06/12 09:20:36;;;;;;;1.45;1.20;;;26.60;41.70;;;30.53;26.81;101749.63;5112973;28;20047;-12
2022/06/12 09:23:44;;;;;;;1.60;1.17;;;26.60;41.80;;;30.57;26.60;101755.59;5113364;28;20064;-12
2022/06/12 09:26:19;;;;;;;2.03;1.40;;;26.50;41.80;;;30.55;26.76;101760.28;5074167;28;20043;-12
2022/06/12 09:29:07;;;;;;;1.25;1.02;;;26.50;41.90;;;30.44;26.73;101748.63;5113148;28;20050;-12
2022/06/12 09:32:26;;;;;;;2.28;1.20;;;26.50;41.90;;;30.50;26.98;101752.59;5095254;28;20044;-12
2022/06/12 09:35:36;;;;;;;2.63;1.40;;;26.50;42.00;;;30.45;27.02;101754.84;5112645;28;20051;-12
2022/06/12 09:38:45;;;;;;;1.92;1.30;;;26.40;42.00;;;30.44;26.91;101748.63;5064203;28;20396;-12
2022/06/12 09:41:31;;;;;;;2.00;1.13;;;26.40;42.10;;;30.35;26.90;101735.91;5111494;28;20071;-12
2022/06/12 09:44:24;;;;;;;1.20;1.10;;;26.40;42.10;;;30.32;26.96;101738.00;5112771;28;20449;-12
2022/06/12 09:47:05;;;;;;;1.80;1.27;;;26.40;42.10;;;30.36;27.09;101742.16;5112521;28;20130;-12
2022/06/12 09:49:54;;;;;;;2.25;1.10;;;26.40;42.20;;;30.34;27.17;101742.31;5112822;28;20411;-12
2022/06/12 09:52:29;;;;;;;2.50;1.30;;;26.40;42.20;;;30.32;27.02;101749.66;5098604;28;20067;-12
2022/06/12 09:55:26;;;;;;;1.55;1.25;;;26.30;42.10;;;30.26;27.14;101740.28;5112546;28;20096;-12
2022/06/12 09:58:02;;;;;;;2.25;1.30;;;26.40;42.20;;;30.29;27.17;101734.59;5112684;28;20138;-12
2022/06/12 10:00:39;;;;;;;1.90;1.38;;;26.40;42.20;;;30.23;26.93;101723.50;5094350;28;20440;-12
2022/06/12 10:03:13;;;;;;;2.70;1.33;;;26.40;42.20;;;30.29;27.16;101731.06;5113059;28;20047;-12
2022/06/12 10:06:06;;;;;;;1.25;1.00;;;26.40;42.20;;;30.23;27.23;101718.94;5094467;28;20043;-12
2022/06/12 10:08:49;;;;;;;1.83;1.20;;;26.30;42.20;;;30.25;27.29;101725.06;5112699;28;20391;-12
2022/06/12 10:11:23;;;;;;;2.10;1.10;;;26.30;42.20;;;30.24;27.14;101728.75;5112989;28;20480;-12
2022/06/12 10:14:15;;;;;;;1.42;0.95;;;26.30;42.20;;;30.23;27.23;101715.41;5096763;28;20135;-12
2022/06/12 10:17:04;;;;;;;1.42;1.10;;;26.30;42.20;;;30.20;27.26;101704.88;5115844;28;20059;-12
2022/06/12 10:19:44;;;;;;;2.55;1.70;;;26.30;42.30;;;30.19;27.15;101708.56;5097637;28;20063;-12
2022/06/12 10:22:19;;;;;;;2.03;1.20;;;26.30;42.80;;;30.19;27.19;101711.25;5115902;28;20134;-12
2022/06/12 10:24:44;;;;;;;1.55;1.20;;;26.30;42.20;;;30.24;27.20;101709.88;5097544;28;20130;-12
2022/06/12 10:27:16;;;;;;;1.60;1.17;;;26.30;42.20;;;30.21;27.16;101714.69;5115749;28;20543;-12
2022/06/12 10:29:57;;;;;;;3.13;1.27;;;26.30;42.20;;;30.17;27.06;101707.84;5095630;28;20052;-12
2022/06/12 10:32:55;;;;;;;;;;;26.30;42.20;;;30.39;27.04;101714.91;5115238;28;20135;-12
2022/06/12 10:35:25;;;;;;;1.40;1.15;;;26.40;42.20;;;30.24;27.20;101709.88;5115630;28;19916;-12
2022/06/12 10:38:05;;;;;;;1.42;1.15;;;26.30;42.20;;;30.23;27.12;101710.88;5115341;28;20089;-12
2022/06/12 10:40:31;;;;;;;1.70;1.23;;;26.40;42.20;;;30.22;27.22;101700.19;5116195;28;20051;-12
2022/06/12 10:43:06;;;;;;;2.65;1.40;;;26.40;42.20;;;30.22;27.21;101697.50;5115522;28;20044;-12
2022/06/12 10:45:37;;;;;;;1.58;1.27;;;26.40;42.80;;;30.20;27.16;101692.25;5097241;28;20126;-12
2022/06/12 10:48:26;;;;;;;1.58;1.20;;;26.30;42.20;;;30.21;27.16;101690.44;5115202;28;20052;-12
2022/06/12 10:50:57;;;;;;;1.48;1.10;;;26.30;42.20;;;30.18;27.24;101686.13;5115210;28;20479;-12
2022/06/12 10:53:27;;;;;;;1.90;1.00;;;26.30;42.20;;;30.22;27.25;101692.13;5115677;28;20485;-12